Time;durP1;ratioP1;P1;durP2;ratioP2;P2;SDS_P1;SDS_P2;PMS_P1;PMS_P2;Temp;Humidity;BMP_temperature;BMP_pressure;BME280_temperature;BME280_humidity;BME280_pressure;Samples;Min_cycle;Max_cycle;Signal;HPM_P1;HPM_P2
2024/02/12 00:02:44;;;;;;;35.42;15.05;;;;;;;8.38;100.00;99274.84;6301951;28;20455;-79
2024/02/12 00:05:46;;;;;;;38.17;14.52;;;;;;;8.40;100.00;99278.19;6301472;28;20051;-79
2024/02/12 00:08:49;;;;;;;31.20;13.48;;;;;;;8.39;100.00;99273.91;6301323;28;20178;-79
2024/02/12 00:11:51;;;;;;;43.28;15.18;;;;;;;8.44;100.00;99277.03;6301883;28;20490;-79
2024/02/12 00:14:53;;;;;;;33.53;11.70;;;;;;;8.45;100.00;99296.19;6301400;28;20050;-79
2024/02/12 00:17:57;;;;;;;34.42;13.35;;;;;;;8.42;100.00;99286.78;6301510;28;20452;-78
2024/02/12 00:20:58;;;;;;;29.80;13.23;;;;;;;8.41;100.00;99298.19;6301451;28;20430;-78
2024/02/12 00:24:01;;;;;;;35.60;14.25;;;;;;;8.33;100.00;99282.13;6300205;28;20051;-78
2024/02/12 00:27:03;;;;;;;42.65;14.45;;;;;;;8.35;100.00;99290.72;6300152;28;20131;-79
2024/02/12 00:30:08;;;;;;;35.80;13.43;;;;;;;8.37;100.00;99289.72;6301603;28;20135;-78
2024/02/12 00:33:09;;;;;;;33.25;13.73;;;;;;;8.33;100.00;99290.00;6301162;28;20330;-79
2024/02/12 00:36:10;;;;;;;40.08;13.60;;;;;;;8.31;100.00;99292.72;6300880;28;20045;-79
2024/02/12 00:39:13;;;;;;;29.40;13.55;;;;;;;8.34;100.00;99291.66;6300802;28;20052;-78
2024/02/12 00:42:14;;;;;;;34.85;13.45;;;;;;;8.33;100.00;99290.81;6300734;28;20052;-79
2024/02/12 00:45:17;;;;;;;31.15;14.23;;;;;;;8.34;100.00;99292.50;6300755;28;20052;-79
2024/02/12 00:48:18;;;;;;;40.78;15.07;;;;;;;8.32;100.00;99294.38;6300375;28;20053;-79
2024/02/12 00:51:21;;;;;;;33.22;13.77;;;;;;;8.32;100.00;99293.56;6300852;28;20055;-79
2024/02/12 00:54:26;;;;;;;40.53;14.32;;;;;;;8.30;100.00;99306.72;6300251;28;20135;-79
2024/02/12 00:57:28;;;;;;;35.00;15.02;;;;;;;8.31;100.00;99297.97;6300492;28;20045;-79
2024/02/12 01:00:30;;;;;;;35.92;14.13;;;;;;;8.32;100.00;99297.00;6300597;28;20135;-79
2024/02/12 01:03:31;;;;;;;32.80;13.23;;;;;;;8.32;100.00;99299.63;6300424;28;20049;-79
2024/02/12 01:06:33;;;;;;;42.08;13.95;;;;;;;8.35;100.00;99298.56;6300527;28;20051;-79
2024/02/12 01:09:36;;;;;;;43.22;14.90;;;;;;;8.35;100.00;99312.47;6299942;28;20053;-79
2024/02/12 01:12:39;;;;;;;37.40;13.18;;;;;;;8.33;100.00;99309.16;6300633;28;20356;-79
2024/02/12 01:15:40;;;;;;;38.13;14.40;;;;;;;8.30;100.00;99305.91;6299976;28;20451;-79
2024/02/12 01:18:42;;;;;;;41.28;15.65;;;;;;;8.32;100.00;99309.25;6300051;28;20108;-79
2024/02/12 01:21:43;;;;;;;33.08;13.20;;;;;;;8.35;100.00;99309.03;6300244;28;20056;-80
2024/02/12 01:24:46;;;;;;;44.22;16.30;;;;;;;8.32;100.00;99310.09;6300274;28;20060;-81
2024/02/12 01:27:47;;;;;;;36.03;13.73;;;;;;;8.31;100.00;99313.66;6299664;28;20052;-81
2024/02/12 01:30:49;;;;;;;45.97;14.73;;;;;;;8.27;100.00;99316.59;6300537;28;20053;-79
2024/02/12 01:33:50;;;;;;;32.70;13.85;;;;;;;8.19;100.00;99316.25;6299764;28;20360;-79
2024/02/12 01:36:52;;;;;;;38.10;14.40;;;;;;;8.22;100.00;99324.75;6300080;28;20045;-78
2024/02/12 01:39:56;;;;;;;31.90;12.75;;;;;;;8.28;100.00;99316.47;6297560;28;20045;-78
2024/02/12 01:42:57;;;;;;;38.08;13.70;;;;;;;8.28;100.00;99320.88;6300250;28;20061;-78
2024/02/12 01:45:59;;;;;;;35.97;13.40;;;;;;;8.25;100.00;99321.06;6298815;28;20063;-79
2024/02/12 01:49:01;;;;;;;37.65;13.32;;;;;;;8.25;100.00;99321.06;6299300;28;20048;-79
2024/02/12 01:52:02;;;;;;;37.63;13.70;;;;;;;8.27;100.00;99333.13;6299842;28;20114;-79
2024/02/12 01:55:07;;;;;;;35.05;12.70;;;;;;;8.22;100.00;99329.09;6299375;28;20055;-79
2024/02/12 01:58:09;;;;;;;38.53;13.68;;;;;;;8.17;100.00;99328.59;6299644;28;20609;-79
2024/02/12 02:01:15;;;;;;;39.35;13.02;;;;;;;8.18;100.00;99333.72;6299582;28;20080;-79
2024/02/12 02:04:17;;;;;;;35.05;13.07;;;;;;;8.19;100.00;99332.78;6299573;28;20053;-79
2024/02/12 02:07:20;;;;;;;28.83;12.52;;;;;;;8.23;100.00;99336.88;6299200;28;20068;-79
2024/02/12 02:10:23;;;;;;;30.90;12.32;;;;;;;8.27;100.00;99340.13;6299772;28;20171;-79
2024/02/12 02:13:25;;;;;;;37.05;13.25;;;;;;;8.22;100.00;99343.06;6314293;22;20463;-74
2024/02/12 02:16:27;;;;;;;39.33;13.90;;;;;;;8.18;100.00;99348.59;6298747;28;20045;-73
2024/02/12 02:19:29;;;;;;;45.03;13.55;;;;;;;8.18;100.00;99353.84;6299134;28;20461;-73
2024/02/12 02:22:30;;;;;;;31.40;11.93;;;;;;;8.20;100.00;99352.78;6299386;28;20052;-73
2024/02/12 02:25:33;;;;;;;26.13;11.15;;;;;;;8.24;100.00;99356.03;6299282;28;20059;-74
2024/02/12 02:28:34;;;;;;;31.35;12.57;;;;;;;8.22;100.00;99353.53;6298965;28;20444;-74
2024/02/12 02:31:36;;;;;;;29.35;12.50;;;;;;;8.27;100.00;99351.44;6299566;28;20052;-73
2024/02/12 02:34:37;;;;;;;28.05;11.80;;;;;;;8.22;100.00;99345.69;6299116;28;20048;-73
2024/02/12 02:37:38;;;;;;;24.88;10.93;;;;;;;8.09;100.00;99356.09;6298951;28;20048;-74
2024/02/12 02:40:42;;;;;;;23.95;11.50;;;;;;;8.10;100.00;99359.56;6299282;28;20048;-74
2024/02/12 02:43:43;;;;;;;33.90;11.80;;;;;;;8.06;100.00;99358.91;6299257;28;20053;-74
2024/02/12 02:46:46;;;;;;;26.90;10.93;;;;;;;8.11;100.00;99362.06;6299140;28;20044;-74
2024/02/12 02:49:48;;;;;;;26.42;11.10;;;;;;;8.08;100.00;99359.66;6302364;28;20500;-73
2024/02/12 02:52:49;;;;;;;32.63;11.50;;;;;;;8.04;100.00;99360.81;6303597;28;20052;-74
2024/02/12 02:55:52;;;;;;;29.30;11.45;;;;;;;8.05;100.00;99357.25;6303309;28;20055;-74
2024/02/12 02:58:53;;;;;;;27.77;10.38;;;;;;;8.09;100.00;99363.13;6303213;28;20048;-74
2024/02/12 03:01:55;;;;;;;21.88;10.18;;;;;;;8.13;100.00;99361.97;6303377;28;20052;-73
2024/02/12 03:04:56;;;;;;;31.00;10.57;;;;;;;8.09;100.00;99365.75;6303203;28;20131;-74
2024/02/12 03:07:58;;;;;;;33.08;12.15;;;;;;;8.15;100.00;99370.56;6302595;28;20071;-74
2024/02/12 03:11:01;;;;;;;33.72;11.35;;;;;;;8.14;100.00;99377.56;6303418;28;20052;-73
2024/02/12 03:14:03;;;;;;;33.53;10.48;;;;;;;8.16;100.00;99380.09;6302789;28;20444;-73
2024/02/12 03:17:04;;;;;;;30.65;11.30;;;;;;;8.08;100.00;99379.72;6291525;28;20053;-73
2024/02/12 03:20:09;;;;;;;35.53;11.75;;;;;;;8.14;100.00;99381.97;6278079;28;20349;-73
2024/02/12 03:23:11;;;;;;;31.63;10.85;;;;;;;8.17;100.00;99392.22;6278271;28;20085;-73
2024/02/12 03:26:14;;;;;;;33.65;11.68;;;;;;;8.14;100.00;99392.44;6278105;28;20045;-73
2024/02/12 03:29:15;;;;;;;33.30;12.13;;;;;;;8.13;100.00;99402.06;6297348;28;20097;-73
2024/02/12 03:32:16;;;;;;;28.27;10.75;;;;;;;8.13;100.00;99398.63;6302980;28;20065;-73
2024/02/12 03:35:18;;;;;;;33.25;11.40;;;;;;;8.04;100.00;99396.56;6302547;28;20451;-73
2024/02/12 03:38:19;;;;;;;26.33;10.73;;;;;;;8.05;100.00;99406.94;6302328;28;20045;-73
2024/02/12 03:41:24;;;;;;;38.20;12.30;;;;;;;7.96;100.00;99404.94;6301882;28;20045;-73
2024/02/12 03:44:26;;;;;;;28.77;12.15;;;;;;;7.92;100.00;99413.06;6293043;28;20045;-73
2024/02/12 03:47:30;;;;;;;35.38;11.30;;;;;;;7.86;100.00;99409.06;6292958;28;20049;-73
2024/02/12 04:00:30;;;;;;;30.60;12.45;;;;;;;7.80;100.00;99432.97;6288899;28;20049;-73
2024/02/12 04:03:31;;;;;;;32.78;12.23;;;;;;;7.76;100.00;99431.50;6289466;28;20075;-73
2024/02/12 04:06:34;;;;;;;32.90;12.50;;;;;;;7.82;100.00;99433.75;6291654;28;20041;-73
2024/02/12 04:09:38;;;;;;;34.25;11.55;;;;;;;7.86;100.00;99435.22;6288207;28;20067;-74
2024/02/12 04:12:43;;;;;;;27.20;10.90;;;;;;;7.89;100.00;99437.63;6288637;28;20080;-73
2024/02/12 04:15:44;;;;;;;31.80;11.85;;;;;;;7.88;100.00;99441.19;6289327;28;20429;-73
2024/02/12 04:18:46;;;;;;;34.13;12.48;;;;;;;7.86;100.00;99445.69;6276854;28;20468;-73
2024/02/12 04:21:47;;;;;;;28.35;11.13;;;;;;;7.85;100.00;99444.81;6289318;28;20591;-73
2024/02/12 04:24:48;;;;;;;29.10;12.65;;;;;;;7.88;100.00;99452.50;6326696;28;20047;-71
2024/02/12 04:27:54;;;;;;;29.40;10.75;;;;;;;7.88;100.00;99456.88;6326156;28;20390;-73
2024/02/12 04:30:56;;;;;;;30.88;11.98;;;;;;;7.91;100.00;99466.31;6326728;28;20158;-74
2024/02/12 04:33:57;;;;;;;33.92;12.15;;;;;;;7.84;100.00;99465.84;6326227;28;20048;-73
2024/02/12 04:36:59;;;;;;;25.98;10.77;;;;;;;7.89;100.00;99467.25;6307221;28;20432;-73
2024/02/12 04:40:02;;;;;;;20.33;9.13;;;;;;;7.88;100.00;99465.56;6300938;28;20056;-74
2024/02/12 04:43:05;;;;;;;24.40;9.93;;;;;;;7.84;100.00;99471.91;6300910;28;20059;-73
2024/02/12 04:46:08;;;;;;;24.52;9.77;;;;;;;7.79;100.00;99473.16;6300619;28;20049;-73
2024/02/12 04:49:09;;;;;;;27.75;10.98;;;;;;;7.76;100.00;99478.56;6300358;28;20131;-74
2024/02/12 04:52:11;;;;;;;27.65;10.45;;;;;;;7.76;100.00;99482.00;6300922;28;20074;-73
2024/02/12 04:55:12;;;;;;;33.63;12.32;;;;;;;7.75;100.00;99490.81;6300596;28;20346;-73
2024/02/12 04:58:15;;;;;;;30.00;10.85;;;;;;;7.77;100.00;99494.19;6300429;28;20049;-73
2024/02/12 05:01:16;;;;;;;29.80;10.40;;;;;;;7.79;100.00;99497.53;6301138;28;20060;-73
2024/02/12 05:04:18;;;;;;;30.48;11.45;;;;;;;7.82;100.00;99504.34;6300483;28;20055;-73
2024/02/12 05:07:19;;;;;;;28.52;10.25;;;;;;;7.86;100.00;99501.44;6300111;28;20927;-74
2024/02/12 05:10:21;;;;;;;30.02;10.77;;;;;;;7.80;100.00;99507.03;6300054;28;20056;-73
2024/02/12 05:13:24;;;;;;;30.08;10.63;;;;;;;7.77;100.00;99501.19;6299971;28;20434;-74
2024/02/12 05:16:32;;;;;;;28.13;10.48;;;;;;;7.78;100.00;99503.69;6300282;28;20044;-74
2024/02/12 05:22:52;;;;;;;27.00;10.73;;;;;;;7.79;100.00;99500.13;6300381;28;20052;-74
2024/02/12 05:25:54;;;;;;;30.23;12.35;;;;;;;7.81;100.00;99518.34;6300153;28;20044;-73
2024/02/12 05:28:57;;;;;;;33.90;12.27;;;;;;;7.81;100.00;99510.50;6299631;28;20080;-73
2024/02/12 05:31:59;;;;;;;35.75;11.40;;;;;;;7.78;100.00;99510.72;6300432;28;20053;-73
2024/02/12 05:35:00;;;;;;;28.15;10.77;;;;;;;7.86;100.00;99511.06;6299930;28;20051;-73
2024/02/12 05:38:02;;;;;;;32.58;11.30;;;;;;;7.78;100.00;99519.38;6299875;28;20098;-73
2024/02/12 05:41:04;;;;;;;33.50;12.65;;;;;;;7.75;100.00;99519.56;6299122;28;20041;-73
2024/02/12 05:44:07;;;;;;;33.45;12.30;;;;;;;7.82;100.00;99531.34;6299799;28;20455;-74
2024/02/12 05:47:08;;;;;;;34.42;11.98;;;;;;;7.85;100.00;99522.44;6294905;28;20049;-74
2024/02/12 05:50:11;;;;;;;28.55;11.30;;;;;;;7.89;100.00;99523.94;6300297;28;20045;-74
2024/02/12 05:53:12;;;;;;;28.70;11.68;;;;;;;7.86;100.00;99535.47;6299645;28;20052;-74
2024/02/12 05:56:14;;;;;;;29.52;11.40;;;;;;;7.87;100.00;99524.06;6300192;28;20052;-74
2024/02/12 05:59:17;;;;;;;30.95;12.88;;;;;;;7.97;100.00;99533.94;6299491;28;20475;-73
2024/02/12 06:02:18;;;;;;;30.83;12.02;;;;;;;7.94;100.00;99536.75;6299717;28;20048;-73
2024/02/12 06:05:19;;;;;;;36.53;11.07;;;;;;;7.93;100.00;99542.91;6299332;28;20480;-73
2024/02/12 06:08:21;;;;;;;33.63;10.55;;;;;;;7.88;100.00;99530.97;6299098;28;20045;-74
2024/02/12 06:11:22;;;;;;;27.17;11.25;;;;;;;7.90;100.00;99546.53;6299957;28;20452;-73
2024/02/12 06:14:26;;;;;;;27.08;11.52;;;;;;;7.86;100.00;99547.69;6299313;28;20054;-73
2024/02/12 06:17:27;;;;;;;31.42;12.88;;;;;;;7.84;100.00;99555.63;6299292;28;20044;-74
2024/02/12 06:20:29;;;;;;;34.05;12.38;;;;;;;7.90;100.00;99557.00;6299716;28;20051;-74
2024/02/12 06:23:30;;;;;;;31.67;12.43;;;;;;;7.85;100.00;99561.69;6301193;28;20044;-73
2024/02/12 06:26:33;;;;;;;34.83;13.30;;;;;;;7.79;100.00;99570.75;6304278;28;20395;-73
2024/02/12 06:29:39;;;;;;;28.92;11.65;;;;;;;7.86;100.00;99577.31;6303538;28;20139;-74
2024/02/12 06:32:41;;;;;;;32.35;12.50;;;;;;;7.94;100.00;99583.81;6304232;28;20054;-73
2024/02/12 06:35:42;;;;;;;34.15;12.43;;;;;;;8.01;100.00;99583.38;6303700;28;20049;-73
2024/02/12 06:38:44;;;;;;;31.15;10.88;;;;;;;7.93;100.00;99590.00;6303614;28;20344;-74
2024/02/12 06:41:45;;;;;;;31.85;12.27;;;;;;;7.91;100.00;99587.50;6290668;28;20045;-74
2024/02/12 06:44:48;;;;;;;32.22;12.10;;;;;;;7.80;100.00;99589.91;6290558;28;20040;-74
2024/02/12 06:47:49;;;;;;;37.78;13.55;;;;;;;7.81;100.00;99596.81;6290743;28;20060;-73
2024/02/12 06:50:50;;;;;;;40.80;12.82;;;;;;;7.81;100.00;99596.81;6290212;28;20060;-74
2024/02/12 06:53:52;;;;;;;36.85;13.52;;;;;;;7.73;100.00;99610.38;6291358;28;20049;-73
2024/02/12 06:56:53;;;;;;;27.92;12.93;;;;;;;7.71;100.00;99613.97;6289800;28;20060;-73
2024/02/12 06:59:57;;;;;;;32.30;12.55;;;;;;;7.77;100.00;99624.94;6283344;28;20049;-73
2024/02/12 07:02:59;;;;;;;30.70;11.35;;;;;;;7.76;100.00;99630.25;6278779;28;20130;-73
2024/02/12 07:06:00;;;;;;;30.63;12.48;;;;;;;7.79;100.00;99630.91;6284941;28;20053;-73
2024/02/12 07:09:02;;;;;;;33.08;11.93;;;;;;;7.82;100.00;99638.56;6302647;28;20345;-74
2024/02/12 07:12:04;;;;;;;32.60;12.98;;;;;;;7.84;100.00;99641.94;6303476;28;20052;-74
2024/02/12 07:15:09;;;;;;;32.83;12.82;;;;;;;7.80;100.00;99639.59;6302921;28;20060;-73
2024/02/12 07:18:10;;;;;;;33.97;12.63;;;;;;;7.81;100.00;99649.09;6302810;28;20099;-73
2024/02/12 07:21:12;;;;;;;41.78;15.40;;;;;;;7.84;100.00;99649.78;6296847;28;20453;-74
2024/02/12 07:24:13;;;;;;;30.02;12.63;;;;;;;7.87;100.00;99657.44;6289620;28;20178;-74
2024/02/12 07:27:15;;;;;;;33.17;13.40;;;;;;;7.86;100.00;99665.41;6284244;28;20053;-74
2024/02/12 07:30:18;;;;;;;31.27;13.13;;;;;;;7.84;100.00;99664.63;6283125;28;20456;-73
2024/02/12 07:33:20;;;;;;;41.47;15.85;;;;;;;7.93;100.00;99678.94;6277337;28;20045;-73
2024/02/12 07:36:21;;;;;;;31.48;13.07;;;;;;;7.89;100.00;99673.03;6282251;28;20068;-74
2024/02/12 07:39:23;;;;;;;35.17;14.20;;;;;;;7.87;100.00;99678.38;6280152;28;20049;-73
2024/02/12 07:42:24;;;;;;;38.85;12.77;;;;;;;7.86;100.00;99689.78;6293880;28;20078;-73
2024/02/12 07:45:27;;;;;;;37.75;13.38;;;;;;;7.91;100.00;99689.50;6302027;28;20090;-73
2024/02/12 07:48:29;;;;;;;30.88;12.15;;;;;;;7.95;100.00;99688.38;6301701;28;20440;-73
2024/02/12 07:51:30;;;;;;;34.03;13.13;;;;;;;7.97;100.00;99696.13;6296259;28;20041;-74
2024/02/12 07:54:35;;;;;;;30.85;12.65;;;;;;;7.97;100.00;99701.38;6292398;28;20052;-74
2024/02/12 07:57:37;;;;;;;35.38;13.32;;;;;;;7.96;100.00;99704.94;6290026;28;20531;-74
2024/02/12 08:00:40;;;;;;;33.70;13.48;;;;;;;8.03;100.00;99708.84;6288819;28;20428;-73
2024/02/12 08:03:41;;;;;;;31.60;12.68;;;;;;;7.95;100.00;99711.94;6289481;28;20044;-72
2024/02/12 08:06:42;;;;;;;35.65;12.73;;;;;;;8.01;100.00;99723.81;6288252;28;20432;-73
2024/02/12 08:09:44;;;;;;;33.70;12.57;;;;;;;7.99;100.00;99729.09;6289899;28;20056;-74
2024/02/12 08:12:46;;;;;;;33.47;11.65;;;;;;;8.00;100.00;99719.50;6296318;28;20052;-74
2024/02/12 08:15:49;;;;;;;33.53;12.40;;;;;;;8.05;100.00;99726.16;6310726;22;20045;-79
2024/02/12 08:18:52;;;;;;;33.00;13.50;;;;;;;8.08;100.00;99736.44;6296942;28;20550;-79
2024/02/12 08:21:53;;;;;;;29.05;12.60;;;;;;;8.10;100.00;99733.72;6293778;28;20118;-80
2024/02/12 08:24:54;;;;;;;36.60;13.43;;;;;;;8.16;100.00;99743.81;6279990;28;20060;-79
2024/02/12 08:27:56;;;;;;;32.50;13.73;;;;;;;8.06;100.00;99750.53;6269201;28;20044;-78
2024/02/12 08:30:59;;;;;;;35.05;12.48;;;;;;;8.00;100.00;99751.75;6275222;28;20079;-78
2024/02/12 08:34:00;;;;;;;32.95;13.55;;;;;;;8.05;100.00;99761.94;6275934;28;20456;-78
2024/02/12 08:37:02;;;;;;;33.10;12.15;;;;;;;8.05;100.00;99764.56;6275707;28;20057;-78
2024/02/12 08:40:04;;;;;;;38.05;12.13;;;;;;;8.07;100.00;99770.53;6276458;28;20052;-77
2024/02/12 08:43:06;;;;;;;31.05;13.35;;;;;;;8.02;100.00;99773.41;6275369;28;20060;-80
2024/02/12 08:46:12;;;;;;;33.45;12.85;;;;;;;8.13;100.00;99776.25;6275004;28;20045;-78
2024/02/12 08:49:14;;;;;;;28.65;11.90;;;;;;;8.18;100.00;99777.78;6275562;28;20132;-81
2024/02/12 08:52:15;;;;;;;35.20;14.38;;;;;;;8.23;100.00;99780.94;6276250;28;20049;-79
2024/02/12 08:55:17;;;;;;;29.33;13.63;;;;;;;8.25;100.00;99787.75;6275916;28;20052;-79
2024/02/12 08:58:19;;;;;;;30.40;13.20;;;;;;;8.24;100.00;99795.72;6275679;28;20044;-76
2024/02/12 09:01:22;;;;;;;35.90;13.05;;;;;;;8.27;100.00;99799.00;6276017;28;20049;-78
2024/02/12 09:04:23;;;;;;;30.05;12.18;;;;;;;8.32;100.00;99806.59;6275605;28;20357;-77
2024/02/12 09:07:26;;;;;;;28.52;11.68;;;;;;;8.29;100.00;99812.84;6275430;28;20061;-77
2024/02/12 09:10:28;;;;;;;24.92;10.88;;;;;;;8.24;100.00;99814.88;6274467;28;20048;-75
2024/02/12 09:13:31;;;;;;;27.25;10.07;;;;;;;8.29;100.00;99812.00;6275178;28;20671;-80
2024/02/12 09:16:33;;;;;;;29.10;11.13;;;;;;;8.29;100.00;99819.84;6275439;28;20179;-78
2024/02/12 09:19:36;;;;;;;24.33;10.05;;;;;;;8.28;100.00;99826.84;6275085;28;20045;-79
2024/02/12 09:22:38;;;;;;;25.58;9.95;;;;;;;8.31;100.00;99828.44;6275257;28;20049;-77
2024/02/12 09:25:40;;;;;;;26.95;9.88;;;;;;;8.33;100.00;99824.81;6274702;28;20139;-77
2024/02/12 09:28:41;;;;;;;26.15;10.65;;;;;;;8.34;100.00;99831.72;6274735;28;20449;-77
2024/02/12 09:31:44;;;;;;;24.27;9.77;;;;;;;8.38;100.00;99840.28;6275301;28;20136;-78
2024/02/12 09:34:45;;;;;;;20.42;8.35;;;;;;;8.34;100.00;99841.34;6274576;28;20076;-79
2024/02/12 09:37:47;;;;;;;25.45;10.13;;;;;;;8.33;100.00;99839.69;6274622;28;20056;-77
2024/02/12 09:40:49;;;;;;;23.27;9.25;;;;;;;8.33;100.00;99848.38;6275225;28;20085;-76
2024/02/12 09:43:51;;;;;;;21.98;9.55;;;;;;;8.39;100.00;99850.66;6268036;28;20361;-79
2024/02/12 09:47:04;;;;;;;27.55;10.77;;;;;;;8.38;100.00;99863.84;6274202;28;20045;-80
2024/02/12 09:50:07;;;;;;;25.08;10.80;;;;;;;8.33;100.00;99858.84;6273874;28;20401;-79
2024/02/12 09:53:10;;;;;;;25.77;10.88;;;;;;;8.44;100.00;99863.47;6275085;28;20140;-78
2024/02/12 09:56:12;;;;;;;32.58;12.32;;;;;;;8.45;100.00;99862.56;6273846;28;20135;-78
2024/02/12 09:59:14;;;;;;;26.90;11.90;;;;;;;8.44;100.00;99867.88;6279172;28;20041;-80
2024/02/12 10:02:17;;;;;;;24.23;10.82;;;;;;;8.47;100.00;99865.06;6279107;28;20128;-78
2024/02/12 10:05:21;;;;;;;25.58;11.32;;;;;;;8.52;100.00;99865.66;6279677;28;20044;-80
2024/02/12 10:08:23;;;;;;;34.70;11.77;;;;;;;8.57;100.00;99880.16;6279356;28;20132;-81
2024/02/12 10:11:25;;;;;;;33.85;12.63;;;;;;;8.63;100.00;99878.97;6280156;28;20048;-79
2024/02/12 10:14:30;;;;;;;26.05;11.02;;;;;;;8.67;100.00;99876.97;6279421;28;20049;-77
2024/02/12 10:17:33;;;;;;;30.02;12.00;;;;;;;8.51;100.00;99877.91;6272919;28;20184;-81
2024/02/12 10:20:36;;;;;;;28.63;12.63;;;;;;;8.54;100.00;99880.34;6254890;28;20365;-80
2024/02/12 10:23:38;;;;;;;30.65;12.82;;;;;;;8.60;100.00;99887.00;6261792;28;20422;-80
2024/02/12 10:26:39;;;;;;;25.55;12.20;;;;;;;8.78;100.00;99887.69;6280009;28;20049;-82
2024/02/12 10:29:41;;;;;;;38.45;14.02;;;;;;;8.77;100.00;99892.06;6278853;28;20041;-76
2024/02/12 10:32:47;;;;;;;36.42;15.05;;;;;;;8.86;100.00;99902.00;6279813;28;20045;-78
2024/02/12 10:35:51;;;;;;;37.50;13.27;;;;;;;8.87;100.00;99897.59;6278871;28;20056;-79
2024/02/12 10:38:55;;;;;;;30.63;13.15;;;;;;;8.94;100.00;99904.16;6278647;28;20056;-79
2024/02/12 10:41:57;;;;;;;34.33;11.98;;;;;;;8.81;100.00;99904.06;6278868;28;20056;-76
2024/02/12 10:44:59;;;;;;;37.35;12.63;;;;;;;8.98;100.00;99908.28;6278841;28;20451;-80
2024/02/12 10:48:04;;;;;;;37.30;13.65;;;;;;;8.94;100.00;99911.16;6277029;28;20045;-77
2024/02/12 10:51:08;;;;;;;27.75;12.07;;;;;;;8.95;100.00;99916.34;6278891;28;20052;-78
2024/02/12 10:54:09;;;;;;;33.95;13.90;;;;;;;9.00;100.00;99922.16;6278399;28;20349;-80
2024/02/12 10:57:12;;;;;;;34.53;13.30;;;;;;;9.07;100.00;99920.81;6278269;28;20045;-78
2024/02/12 11:00:20;;;;;;;41.45;14.02;;;;;;;9.08;100.00;99917.28;6278875;28;20049;-80
2024/02/12 11:03:32;;;;;;;29.27;12.75;;;;;;;9.02;100.00;99922.03;6255715;28;20188;-75
2024/02/12 11:06:40;;;;;;;28.70;12.18;;;;;;;9.14;100.00;99922.16;6271313;28;20052;-77
2024/02/12 11:09:42;;;;;;;32.58;13.00;;;;;;;9.22;100.00;99926.06;6277167;28;20044;-77
2024/02/12 11:12:46;;;;;;;34.88;13.60;;;;;;;9.28;100.00;99929.16;6278461;28;20056;-78
2024/02/12 11:15:50;;;;;;;37.17;13.68;;;;;;;9.29;100.00;99935.25;6253350;28;20046;-80
2024/02/12 11:18:58;;;;;;;35.42;13.60;;;;;;;9.29;100.00;99936.09;6274881;28;20048;-78
2024/02/12 11:22:00;;;;;;;40.08;15.05;;;;;;;9.11;100.00;99931.97;6278453;28;20049;-78
2024/02/12 11:25:03;;;;;;;33.30;14.13;;;;;;;9.07;100.00;99930.47;6276063;28;20357;-79
2024/02/12 11:28:05;;;;;;;39.53;14.43;;;;;;;9.05;100.00;99933.19;6277450;28;20139;-80
2024/02/12 11:31:10;;;;;;;33.42;14.90;;;;;;;9.08;100.00;99940.00;6278393;28;20064;-79
2024/02/12 11:34:13;;;;;;;39.13;15.32;;;;;;;9.18;100.00;99943.78;6276850;28;20048;-79
2024/02/12 11:37:18;;;;;;;39.85;15.13;;;;;;;9.30;100.00;99948.25;6277122;28;20353;-79
2024/02/12 11:40:20;;;;;;;34.53;14.32;;;;;;;9.17;100.00;99949.94;6277614;28;20060;-77
2024/02/12 11:43:21;;;;;;;37.55;16.08;;;;;;;9.22;100.00;99955.78;6277686;28;20060;-77
2024/02/12 11:46:24;;;;;;;38.72;15.00;;;;;;;9.34;100.00;99951.53;6276576;28;20040;-78
2024/02/12 11:49:27;;;;;;;36.40;14.13;;;;;;;9.44;100.00;99952.66;6277366;28;20045;-79
2024/02/12 11:52:28;;;;;;;41.88;15.88;;;;;;;9.40;100.00;99959.91;6278082;28;20056;-80
2024/02/12 11:55:29;;;;;;;36.45;14.30;;;;;;;9.40;100.00;99959.03;6277751;28;20052;-78
2024/02/12 11:58:31;;;;;;;33.22;14.48;;;;;;;9.23;100.00;99961.84;6277438;28;20049;-77
2024/02/12 12:01:35;;;;;;;40.30;13.73;;;;;;;9.24;100.00;99955.66;6278067;28;20144;-77
2024/02/12 12:04:43;;;;;;;36.38;14.35;;;;;;;9.17;100.00;99951.72;6276878;28;20049;-77
2024/02/12 12:07:44;;;;;;;32.45;14.38;;;;;;;9.08;100.00;99964.47;6276796;28;20330;-75
2024/02/12 12:10:46;;;;;;;44.70;15.77;;;;;;;8.92;100.00;99971.53;6277228;28;20136;-77
2024/02/12 12:13:49;;;;;;;35.67;14.82;;;;;;;8.84;100.00;99979.00;6276570;28;20382;-77
2024/02/12 12:16:51;;;;;;;41.20;13.88;;;;;;;8.62;100.00;99985.47;6276876;28;20053;-78
2024/02/12 12:19:54;;;;;;;40.33;13.98;;;;;;;8.45;100.00;99983.00;6276426;28;20052;-79
2024/02/12 12:22:56;;;;;;;37.70;13.70;;;;;;;8.35;100.00;100006.19;6276981;28;20053;-78
2024/02/12 12:25:57;;;;;;;21.10;10.13;;;;;;;8.11;100.00;100007.56;6276398;28;20077;-81
2024/02/12 12:28:59;;;;;;;21.10;9.55;;;;;;;7.71;100.00;99999.25;6276179;28;20114;-79
2024/02/12 12:32:05;;;;;;;23.90;9.05;;;;;;;7.49;100.00;99998.69;6276525;28;20052;-79
2024/02/12 12:35:09;;;;;;;23.30;10.70;;;;;;;7.49;100.00;100003.91;6276651;28;20048;-80
2024/02/12 12:38:11;;;;;;;26.02;9.88;;;;;;;7.57;100.00;99999.13;6276134;28;20053;-78
2024/02/12 12:41:13;;;;;;;31.58;11.35;;;;;;;7.62;100.00;99991.88;6276266;28;20555;-80
2024/02/12 12:44:14;;;;;;;23.58;10.65;;;;;;;7.63;100.00;99998.84;6275565;28;20429;-80
2024/02/12 12:47:17;;;;;;;32.17;12.05;;;;;;;7.69;100.00;100000.28;6274874;28;20045;-80
2024/02/12 12:50:19;;;;;;;30.15;11.70;;;;;;;7.70;100.00;100001.94;6275361;28;20041;-80
2024/02/12 12:53:21;;;;;;;33.90;11.93;;;;;;;7.91;100.00;100006.03;6267389;28;20049;-78
2024/02/12 12:56:22;;;;;;;27.90;11.82;;;;;;;8.05;100.00;100005.28;6275781;28;20337;-79
2024/02/12 12:59:23;;;;;;;31.67;12.70;;;;;;;8.12;100.00;100004.84;6275421;28;20056;-79
2024/02/12 13:02:25;;;;;;;26.23;10.80;;;;;;;8.23;100.00;100008.66;6267148;28;20052;-79
2024/02/12 13:05:28;;;;;;;39.72;13.65;;;;;;;8.33;100.00;100015.06;6266273;28;20060;-80
2024/02/12 13:08:30;;;;;;;32.50;12.88;;;;;;;8.46;100.00;100010.03;6267218;28;20056;-77
2024/02/12 13:11:34;;;;;;;30.58;12.45;;;;;;;8.58;100.00;100011.94;6266028;28;20342;-78
2024/02/12 13:14:35;;;;;;;30.80;12.45;;;;;;;8.69;100.00;100017.41;6263879;28;20140;-79
2024/02/12 13:17:37;;;;;;;26.88;11.80;;;;;;;8.71;100.00;100018.16;6271319;28;20060;-81
2024/02/12 13:20:41;;;;;;;27.58;12.45;;;;;;;8.82;100.00;100013.16;6265087;28;20042;-80
2024/02/12 13:23:43;;;;;;;27.73;11.65;;;;;;;8.94;100.00;100024.69;6262706;28;20494;-77
2024/02/12 13:26:44;;;;;;;28.10;10.70;;;;;;;9.08;100.00;100023.88;6262514;28;20048;-81
2024/02/12 13:29:46;;;;;;;27.35;11.88;;;;;;;9.07;100.00;100030.91;6265179;28;20046;-81
2024/02/12 13:32:49;;;;;;;22.75;10.02;;;;;;;9.01;100.00;100026.03;6263711;28;20045;-78
2024/02/12 13:35:52;;;;;;;33.22;14.52;;;;;;;8.91;100.00;100037.16;6260737;28;20142;-78
2024/02/12 13:38:53;;;;;;;37.97;12.75;;;;;;;8.96;100.00;100042.97;6260604;28;20057;-80
2024/02/12 13:41:55;;;;;;;27.98;12.38;;;;;;;8.94;100.00;100037.78;6263562;28;20456;-79
2024/02/12 13:44:56;;;;;;;27.27;11.77;;;;;;;8.97;100.00;100042.03;6264470;28;20064;-76
2024/02/12 13:47:57;;;;;;;28.67;11.00;;;;;;;8.98;100.00;100041.91;6267395;28;20050;-78
2024/02/12 13:51:00;;;;;;;26.95;11.30;;;;;;;8.95;100.00;100042.13;6265486;28;20417;-80
2024/02/12 13:54:04;;;;;;;25.75;10.43;;;;;;;8.95;100.00;100036.88;6265696;28;20052;-79
2024/02/12 13:57:05;;;;;;;26.40;10.52;;;;;;;8.85;100.00;100051.41;6267561;28;20101;-79
2024/02/12 14:00:17;;;;;;;25.73;11.68;;;;;;;8.79;100.00;100044.75;6266572;28;20373;-79
2024/02/12 14:03:19;;;;;;;27.25;11.07;;;;;;;8.86;100.00;100058.38;6270493;28;20049;-77
2024/02/12 14:06:21;;;;;;;26.00;9.68;;;;;;;8.92;100.00;100065.88;6270398;28;20049;-78
2024/02/12 14:09:24;;;;;;;21.58;10.32;;;;;;;8.91;100.00;100073.81;6274625;28;20048;-80
2024/02/12 14:12:26;;;;;;;25.95;9.82;;;;;;;8.97;100.00;100074.31;6274886;28;20060;-78